Time;durP1;ratioP1;P1;durP2;ratioP2;P2;SDS_P1;SDS_P2;PMS_P1;PMS_P2;Temp;Humidity;BMP_temperature;BMP_pressure;BME280_temperature;BME280_humidity;BME280_pressure;Samples;Min_cycle;Max_cycle;Signal;HPM_P1;HPM_P2
2021/09/29 00:00:55;;;;;;;12.23;7.68;;;;;;;18.19;57.88;100539.09;4350776;32;33028;-86
2021/09/29 00:03:24;;;;;;;13.20;6.85;;;;;;;18.09;58.05;100539.63;4327088;32;33163;-87
2021/09/29 00:05:52;;;;;;;11.60;7.15;;;;;;;18.30;57.51;100549.09;4338935;32;33068;-86
2021/09/29 00:08:20;;;;;;;11.65;6.80;;;;;;;18.24;57.51;100541.50;4338590;32;34950;-85
2021/09/29 00:10:49;;;;;;;11.32;7.40;;;;;;;18.29;57.26;100542.09;4338507;32;33950;-86
2021/09/29 00:13:24;;;;;;;11.90;7.55;;;;;;;18.27;57.33;100545.75;4338310;32;34529;-85
2021/09/29 00:15:53;;;;;;;10.07;7.18;;;;;;;17.91;58.48;100544.84;4338271;32;33310;-85
2021/09/29 00:18:22;;;;;;;10.73;7.28;;;;;;;18.27;57.19;100535.19;4350015;32;33172;-86
2021/09/29 00:20:50;;;;;;;10.68;7.53;;;;;;;18.26;57.07;100544.91;4362483;32;32628;-86
2021/09/29 00:23:19;;;;;;;10.73;7.18;;;;;;;18.44;56.45;100536.97;4338511;32;33024;-86
2021/09/29 00:25:47;;;;;;;11.32;7.30;;;;;;;18.08;57.46;100543.19;4323953;32;33592;-87
2021/09/29 00:28:14;;;;;;;12.43;7.78;;;;;;;17.99;57.72;100537.44;4347489;32;34009;-86
2021/09/29 00:33:30;;;;;;;11.55;7.25;;;;;;;17.66;58.57;100538.13;4349394;32;34237;-84
2021/09/29 00:35:59;;;;;;;11.32;7.12;;;;;;;18.01;57.55;100532.94;4336086;32;33798;-85
2021/09/29 00:38:30;;;;;;;11.30;7.30;;;;;;;17.81;58.15;100531.25;4359655;32;33429;-86
2021/09/29 00:40:59;;;;;;;13.15;7.50;;;;;;;17.83;58.02;100545.22;4347544;32;32631;-87
2021/09/29 00:43:27;;;;;;;11.00;7.70;;;;;;;17.60;58.87;100541.03;4347789;32;33782;-86
2021/09/29 00:45:56;;;;;;;12.85;6.97;;;;;;;17.78;57.93;100541.09;4346786;32;33301;-86
2021/09/29 00:48:24;;;;;;;11.70;7.62;;;;;;;17.73;58.08;100540.47;4347544;32;33664;-85
2021/09/29 00:50:52;;;;;;;12.93;7.82;;;;;;;17.70;58.35;100541.47;4334719;32;32655;-85
2021/09/29 00:53:20;;;;;;;12.57;7.20;;;;;;;17.89;57.64;100536.16;4347497;32;34022;-84
2021/09/29 00:55:49;;;;;;;10.38;6.95;;;;;;;18.10;56.87;100538.69;4323327;32;34374;-86
2021/09/29 00:58:16;;;;;;;11.25;7.37;;;;;;;17.82;57.44;100532.94;4323129;32;33475;-85
2021/09/29 01:00:45;;;;;;;11.15;7.18;;;;;;;17.81;57.06;100531.25;4323568;32;32241;-85
2021/09/29 01:03:14;;;;;;;10.23;7.07;;;;;;;17.92;56.57;100536.06;4335563;32;34182;-86
2021/09/29 01:05:42;;;;;;;12.85;7.20;;;;;;;17.78;56.81;100541.09;4347778;32;33723;-85
2021/09/29 01:08:14;;;;;;;13.10;7.60;;;;;;;17.78;56.77;100541.94;4346982;32;33872;-86
2021/09/29 01:10:50;;;;;;;15.23;7.97;;;;;;;17.70;57.16;100537.03;4323147;32;32711;-86
2021/09/29 01:13:35;;;;;;;11.77;7.53;;;;;;;17.76;56.99;100535.87;4323276;32;32885;-86
2021/09/29 01:16:05;;;;;;;12.60;7.53;;;;;;;17.86;56.73;100528.41;4335313;32;34161;-86
2021/09/29 01:18:36;;;;;;;10.98;7.28;;;;;;;17.78;56.84;100525.28;4323046;32;33182;-85
2021/09/29 01:21:08;;;;;;;13.52;7.12;;;;;;;17.72;57.09;100529.06;4322510;32;33856;-85
2021/09/29 01:23:57;;;;;;;12.90;7.68;;;;;;;17.92;56.45;100525.50;4335187;32;34778;-86
2021/09/29 01:26:32;;;;;;;13.07;7.05;;;;;;;17.69;57.00;100524.78;4360857;32;34420;-85
2021/09/29 01:29:03;;;;;;;12.77;7.68;;;;;;;17.58;57.18;100521.81;4347031;32;32993;-86
2021/09/29 01:31:33;;;;;;;10.77;7.15;;;;;;;17.61;57.21;100524.28;4322819;32;32762;-87
2021/09/29 01:34:03;;;;;;;13.75;8.02;;;;;;;17.69;56.89;100516.88;4346994;32;33281;-86
2021/09/29 01:36:32;;;;;;;14.85;7.78;;;;;;;17.49;57.72;100527.53;4334792;32;34046;-86
2021/09/29 01:39:00;;;;;;;13.57;7.15;;;;;;;17.60;57.29;100519.94;4334684;32;34510;-84
2021/09/29 01:41:30;;;;;;;10.68;7.18;;;;;;;17.76;56.76;100524.50;4336992;32;33884;-85
2021/09/29 01:43:59;;;;;;;11.70;7.40;;;;;;;17.62;57.17;100523.38;4326785;32;33447;-85
2021/09/29 01:46:29;;;;;;;12.60;8.02;;;;;;;17.48;57.64;100520.53;4323082;32;34192;-85
2021/09/29 01:49:20;;;;;;;10.85;6.90;;;;;;;17.50;57.70;100508.16;4346703;32;33397;-86
2021/09/29 01:51:51;;;;;;;10.88;7.18;;;;;;;17.32;58.02;100516.00;4322800;32;32026;-86
2021/09/29 01:54:21;;;;;;;12.68;7.80;;;;;;;17.28;58.16;100519.69;4347123;32;32997;-86
2021/09/29 01:56:50;;;;;;;14.02;7.07;;;;;;;17.62;57.25;100512.84;4334848;32;34170;-86
2021/09/29 01:59:18;;;;;;;12.95;7.40;;;;;;;17.66;57.00;100514.41;4359424;32;34256;-87
2021/09/29 02:01:46;;;;;;;9.73;6.68;;;;;;;17.64;57.13;100518.91;4347090;32;33714;-86
2021/09/29 02:04:18;;;;;;;12.95;7.78;;;;;;;17.90;56.34;100522.03;4335123;32;34240;-85
2021/09/29 02:06:52;;;;;;;12.00;7.60;;;;;;;17.85;56.41;100518.78;4334579;32;34513;-86
2021/09/29 02:09:24;;;;;;;10.35;7.07;;;;;;;17.89;56.21;100530.03;4323243;32;33561;-87
2021/09/29 02:11:53;;;;;;;14.27;7.75;;;;;;;17.70;56.74;100531.75;4346672;32;32302;-87
2021/09/29 02:14:23;;;;;;;18.05;7.40;;;;;;;17.78;56.56;100528.75;4322778;32;33020;-86
2021/09/29 02:16:53;;;;;;;17.42;7.62;;;;;;;17.74;56.78;100527.22;4346441;32;32949;-86
2021/09/29 02:19:23;;;;;;;12.30;8.10;;;;;;;17.61;57.10;100531.34;4346839;32;33641;-87
2021/09/29 02:21:52;;;;;;;13.10;8.32;;;;;;;17.83;56.34;100520.66;4322077;32;33632;-86
2021/09/29 02:24:22;;;;;;;12.03;7.60;;;;;;;17.89;56.26;100522.13;4322060;32;33334;-86
2021/09/29 02:26:50;;;;;;;12.70;7.43;;;;;;;17.55;57.34;100527.25;4346526;32;33620;-85
2021/09/29 02:29:18;;;;;;;12.10;7.70;;;;;;;17.70;56.67;100528.28;4346446;32;33441;-86
2021/09/29 02:31:48;;;;;;;12.25;7.55;;;;;;;17.79;56.34;100527.84;4346927;32;33081;-86
2021/09/29 02:34:15;;;;;;;11.25;7.30;;;;;;;17.98;55.64;100526.97;4322686;32;33264;-87
2021/09/29 02:36:43;;;;;;;10.73;6.95;;;;;;;17.76;56.04;100530.59;4346084;32;33103;-86
2021/09/29 02:39:11;;;;;;;11.25;7.30;;;;;;;17.82;55.87;100527.69;4334958;32;34687;-87
2021/09/29 02:41:39;;;;;;;11.43;7.25;;;;;;;18.06;55.18;100529.25;4334076;32;33400;-86
2021/09/29 02:44:08;;;;;;;13.32;7.30;;;;;;;18.11;54.89;100529.84;4322428;32;33239;-86
2021/09/29 02:46:39;;;;;;;13.13;7.47;;;;;;;17.89;55.33;100530.88;4334247;32;34267;-87
2021/09/29 02:49:07;;;;;;;13.68;8.05;;;;;;;17.89;55.46;100530.88;4321685;32;33083;-87
2021/09/29 02:51:36;;;;;;;13.07;7.35;;;;;;;17.86;55.36;100531.03;4346472;32;33148;-85
2021/09/29 02:54:04;;;;;;;11.63;7.12;;;;;;;17.92;55.23;100527.22;4346411;32;33178;-86
2021/09/29 02:56:32;;;;;;;12.80;8.15;;;;;;;17.75;55.43;100531.56;4322464;32;33280;-86
2021/09/29 02:59:01;;;;;;;10.88;7.30;;;;;;;17.60;55.77;100529.66;4322007;32;32992;-86
2021/09/29 03:01:28;;;;;;;11.52;7.35;;;;;;;17.66;55.80;100532.00;4322273;32;32489;-85
2021/09/29 03:03:56;;;;;;;12.43;7.68;;;;;;;17.61;56.00;100526.09;4323220;32;33579;-86
2021/09/29 03:06:24;;;;;;;14.35;7.78;;;;;;;17.59;56.02;100522.66;4334849;32;32960;-87
2021/09/29 03:08:52;;;;;;;16.08;8.02;;;;;;;17.68;55.81;100525.72;4346861;32;34555;-86
2021/09/29 03:11:20;;;;;;;16.23;7.20;;;;;;;17.79;55.50;100525.22;4323066;32;32916;-85
2021/09/29 03:13:48;;;;;;;16.62;8.07;;;;;;;17.79;55.42;100526.97;4321997;32;34541;-87
2021/09/29 03:16:17;;;;;;;22.87;8.15;;;;;;;17.91;55.04;100525.53;4334306;32;33120;-86
2021/09/29 03:18:47;;;;;;;11.40;7.12;;;;;;;17.82;55.07;100524.22;4321879;32;33718;-86
2021/09/29 03:21:16;;;;;;;11.02;6.95;;;;;;;17.99;54.23;100523.41;4346275;32;33706;-86
2021/09/29 03:23:44;;;;;;;12.45;7.00;;;;;;;18.12;53.83;100524.50;4321850;32;33669;-86
2021/09/29 03:26:12;;;;;;;10.98;7.62;;;;;;;18.23;53.22;100521.34;4322016;32;33095;-87
2021/09/29 03:28:40;;;;;;;16.00;7.57;;;;;;;18.06;53.70;100521.34;4321546;32;33247;-86
2021/09/29 03:31:08;;;;;;;9.80;6.75;;;;;;;17.82;54.48;100513.66;4333973;32;33446;-87
2021/09/29 03:33:35;;;;;;;20.00;7.55;;;;;;;17.83;54.44;100516.22;4333927;32;33155;-87
2021/09/29 03:36:04;;;;;;;13.23;7.18;;;;;;;18.17;53.39;100508.44;4309735;32;33647;-86
2021/09/29 03:38:32;;;;;;;12.20;7.40;;;;;;;17.96;54.12;100519.16;4333818;32;34886;-86
2021/09/29 03:41:01;;;;;;;11.90;6.57;;;;;;;17.87;54.15;100511.66;4333342;32;33507;-86
2021/09/29 03:43:29;;;;;;;11.80;7.32;;;;;;;17.81;54.34;100514.59;4345783;32;33941;-86
2021/09/29 03:45:57;;;;;;;13.02;7.80;;;;;;;17.74;54.34;100513.19;4345505;32;34078;-86
2021/09/29 03:48:25;;;;;;;13.82;7.25;;;;;;;18.03;53.42;100517.91;4321545;32;33365;-86
2021/09/29 03:50:53;;;;;;;12.55;7.97;;;;;;;18.32;52.55;100510.31;4321841;32;34114;-86
2021/09/29 03:53:21;;;;;;;12.57;7.15;;;;;;;18.21;52.86;100514.44;4357734;32;34271;-87
2021/09/29 03:55:49;;;;;;;16.55;6.82;;;;;;;17.78;53.97;100510.31;4333330;32;34657;-86
2021/09/29 03:58:20;;;;;;;11.68;7.22;;;;;;;18.10;53.21;100514.97;4322313;32;32918;-86
2021/09/29 04:00:48;;;;;;;13.80;6.97;;;;;;;17.92;53.71;100509.69;4333833;32;33746;-86
2021/09/29 04:03:16;;;;;;;13.15;7.37;;;;;;;18.18;52.96;100511.00;4347769;32;34448;-85
2021/09/29 04:05:44;;;;;;;16.62;7.60;;;;;;;18.21;52.74;100507.34;4347570;32;33064;-86
2021/09/29 04:08:12;;;;;;;13.07;7.10;;;;;;;18.30;52.34;100517.44;4347737;32;33199;-85
2021/09/29 04:10:40;;;;;;;13.35;7.28;;;;;;;18.04;52.97;100510.84;4323980;32;32541;-85
2021/09/29 04:13:08;;;;;;;15.77;7.85;;;;;;;18.14;52.73;100508.59;4335892;32;33249;-86
2021/09/29 04:15:37;;;;;;;14.13;7.55;;;;;;;17.93;53.45;100511.37;4347853;32;33005;-85
2021/09/29 04:18:06;;;;;;;10.15;7.22;;;;;;;18.15;52.71;100508.53;4323676;32;34401;-85
2021/09/29 04:20:33;;;;;;;23.58;7.43;;;;;;;18.07;52.74;100505.44;4346799;32;33464;-86
2021/09/29 04:23:01;;;;;;;19.50;7.75;;;;;;;17.79;53.63;100500.63;4335275;32;33033;-85
2021/09/29 04:25:30;;;;;;;15.20;7.82;;;;;;;17.92;53.22;100509.69;4336203;32;34056;-85
2021/09/29 04:27:57;;;;;;;11.68;7.25;;;;;;;17.99;52.97;100505.81;4323750;32;33265;-87
2021/09/29 04:30:25;;;;;;;14.98;7.00;;;;;;;18.20;52.34;100510.91;4323750;32;32925;-85
2021/09/29 04:32:55;;;;;;;11.07;6.75;;;;;;;18.00;52.87;100506.66;4323611;32;33423;-85
2021/09/29 04:35:23;;;;;;;23.15;9.38;;;;;;;17.79;53.49;100508.53;4347879;32;32942;-84
2021/09/29 04:37:50;;;;;;;12.00;6.60;;;;;;;17.93;53.08;100507.91;4347930;32;33374;-85
2021/09/29 04:40:19;;;;;;;14.13;6.93;;;;;;;18.15;52.44;100511.16;4323576;32;33757;-86
2021/09/29 04:42:46;;;;;;;15.50;8.75;;;;;;;18.15;52.41;100511.16;4348257;32;34006;-85
2021/09/29 04:45:14;;;;;;;19.73;9.13;;;;;;;18.08;52.57;100514.19;4348405;32;33534;-86
2021/09/29 04:47:42;;;;;;;12.88;9.02;;;;;;;18.03;52.88;100517.06;4325272;32;32922;-85
2021/09/29 04:50:10;;;;;;;17.90;9.43;;;;;;;18.19;52.43;100522.41;4339561;32;34483;-87
2021/09/29 04:52:38;;;;;;;12.02;7.35;;;;;;;18.11;52.45;100514.87;4336171;32;33882;-84
2021/09/29 04:55:07;;;;;;;13.38;7.20;;;;;;;17.86;53.48;100520.50;4336771;32;33421;-85
2021/09/29 04:57:36;;;;;;;11.10;6.80;;;;;;;17.74;53.64;100526.38;4324497;32;34064;-85
2021/09/29 05:00:05;;;;;;;11.50;6.10;;;;;;;17.81;53.48;100518.06;4348402;32;33250;-83
2021/09/29 05:02:34;;;;;;;11.70;7.22;;;;;;;17.91;53.24;100520.25;4312435;32;34364;-85
2021/09/29 05:05:03;;;;;;;10.30;6.90;;;;;;;17.91;53.27;100512.34;4352513;32;34192;-84
2021/09/29 05:07:31;;;;;;;12.15;7.18;;;;;;;18.03;52.71;100517.91;4351200;32;32958;-85
2021/09/29 05:09:59;;;;;;;23.05;8.05;;;;;;;18.06;52.68;100521.34;4363537;32;32743;-85
2021/09/29 05:12:30;;;;;;;14.82;8.60;;;;;;;17.99;52.95;100518.97;4347062;32;34054;-84
2021/09/29 05:14:59;;;;;;;11.88;7.43;;;;;;;18.13;52.55;100520.91;4353686;32;34129;-85
2021/09/29 05:17:28;;;;;;;14.00;7.25;;;;;;;18.26;52.11;100515.88;4360368;32;33015;-85
2021/09/29 05:19:56;;;;;;;11.88;6.95;;;;;;;18.29;52.00;100523.62;4360026;32;34409;-84
2021/09/29 05:22:24;;;;;;;12.70;7.55;;;;;;;18.34;51.82;100523.41;4348167;32;34009;-84
2021/09/29 05:24:52;;;;;;;10.80;6.78;;;;;;;18.30;52.08;100527.16;4360241;32;33348;-84
2021/09/29 05:27:20;;;;;;;13.10;7.28;;;;;;;18.11;52.65;100529.84;4348347;32;32808;-85
2021/09/29 05:29:50;;;;;;;13.62;7.12;;;;;;;18.06;52.76;100532.72;4360690;32;33547;-85
2021/09/29 05:32:19;;;;;;;14.77;7.00;;;;;;;18.08;52.95;100537.91;4367401;32;33540;-85
2021/09/29 05:34:47;;;;;;;11.52;7.20;;;;;;;18.21;52.43;100539.00;4339760;32;33052;-84
2021/09/29 05:37:15;;;;;;;15.05;7.35;;;;;;;18.49;51.83;100537.59;4365204;32;34075;-84
2021/09/29 05:39:43;;;;;;;14.50;7.62;;;;;;;18.45;51.68;100539.53;4365583;32;33553;-85
2021/09/29 05:42:14;;;;;;;11.27;7.22;;;;;;;18.47;51.61;100534.22;4366531;32;34391;-86
2021/09/29 05:44:42;;;;;;;10.40;6.68;;;;;;;18.43;51.73;100533.50;4340046;32;33156;-85
2021/09/29 05:47:10;;;;;;;12.77;6.93;;;;;;;18.49;51.32;100540.25;4365511;32;32864;-86
2021/09/29 05:49:38;;;;;;;12.13;8.70;;;;;;;18.42;51.57;100541.50;4364801;32;32440;-86
2021/09/29 05:52:07;;;;;;;12.73;8.52;;;;;;;18.58;51.26;100549.47;4364894;32;34099;-86
2021/09/29 05:54:36;;;;;;;12.30;6.68;;;;;;;18.61;51.06;100547.53;4365270;32;34909;-85
2021/09/29 05:57:05;;;;;;;12.10;6.60;;;;;;;18.82;50.52;100550.00;4352731;32;33036;-85
2021/09/29 05:59:33;;;;;;;17.15;7.75;;;;;;;18.69;50.73;100552.41;4365194;32;33629;-85
2021/09/29 06:02:02;;;;;;;14.45;7.28;;;;;;;18.66;51.00;100558.69;4352575;32;33469;-85
2021/09/29 06:04:30;;;;;;;13.82;7.25;;;;;;;18.69;50.90;100553.28;4351593;32;34180;-85
2021/09/29 06:06:59;;;;;;;11.73;7.25;;;;;;;18.60;51.05;100552.88;4364512;32;33566;-86
2021/09/29 06:09:28;;;;;;;14.52;7.50;;;;;;;18.77;50.76;100560.78;4352475;32;33201;-87
2021/09/29 06:11:56;;;;;;;19.15;7.45;;;;;;;18.64;51.12;100557.06;4352207;32;32846;-87
2021/09/29 06:14:25;;;;;;;14.07;6.87;;;;;;;19.09;49.81;100555.63;4340528;32;33382;-87
2021/09/29 06:17:01;;;;;;;12.25;7.50;;;;;;;19.06;49.79;100549.66;4341382;32;33182;-88
2021/09/29 06:19:29;;;;;;;12.73;7.18;;;;;;;18.95;49.94;100552.88;4365901;32;33650;-86
2021/09/29 06:21:58;;;;;;;13.00;6.97;;;;;;;19.07;49.81;100551.38;4352539;32;33027;-87
2021/09/29 06:24:26;;;;;;;13.23;7.10;;;;;;;18.94;50.11;100551.16;4350938;32;34846;-86
2021/09/29 06:26:54;;;;;;;14.48;6.82;;;;;;;18.78;50.59;100545.81;4351938;32;34124;-86
2021/09/29 06:29:22;;;;;;;12.73;7.90;;;;;;;18.94;50.22;100561.72;4364723;32;33507;-85
2021/09/29 06:31:55;;;;;;;14.85;7.60;;;;;;;19.16;49.55;100561.44;4369084;32;33458;-85
2021/09/29 06:34:27;;;;;;;14.35;7.07;;;;;;;19.08;49.89;100561.84;4377726;32;33801;-87
2021/09/29 06:36:55;;;;;;;10.82;7.40;;;;;;;19.11;49.71;100568.75;4388823;32;34243;-84
2021/09/29 06:39:23;;;;;;;12.88;7.10;;;;;;;19.00;49.84;100566.69;4364065;32;34933;-84
2021/09/29 06:41:51;;;;;;;22.62;8.60;;;;;;;18.77;50.38;100565.22;4376173;32;33927;-85
2021/09/29 06:44:18;;;;;;;13.57;8.77;;;;;;;18.87;50.23;100571.72;4376850;32;34126;-87
2021/09/29 06:46:50;;;;;;;23.35;8.68;;;;;;;19.02;49.78;100570.94;4376441;32;34491;-86
2021/09/29 06:49:18;;;;;;;16.95;9.80;;;;;;;19.18;49.45;100578.91;4376747;32;32934;-86
2021/09/29 06:51:46;;;;;;;12.88;8.73;;;;;;;19.09;49.82;100581.19;4364677;32;34034;-86
2021/09/29 06:54:16;;;;;;;13.73;8.38;;;;;;;19.15;49.61;100576.41;4364166;32;34067;-87
2021/09/29 06:56:47;;;;;;;16.83;8.88;;;;;;;18.93;50.27;100578.50;4340857;32;33452;-86
2021/09/29 06:59:15;;;;;;;15.05;8.70;;;;;;;18.91;50.46;100578.56;4352322;32;32378;-86
2021/09/29 07:01:43;;;;;;;15.48;9.18;;;;;;;18.91;50.39;100581.22;4352606;32;34360;-87
2021/09/29 07:04:10;;;;;;;15.90;8.40;;;;;;;18.99;50.11;100583.47;4364531;32;34037;-85
2021/09/29 07:06:38;;;;;;;15.98;9.05;;;;;;;19.06;50.03;100578.72;4364412;32;32881;-86
2021/09/29 07:09:08;;;;;;;18.10;8.68;;;;;;;18.79;50.95;100581.84;4352309;32;32648;-85
2021/09/29 07:11:36;;;;;;;17.17;7.65;;;;;;;19.01;50.32;100584.22;4363616;32;32893;-86
2021/09/29 07:14:04;;;;;;;16.60;8.50;;;;;;;19.04;50.26;100586.72;4352489;32;33284;-86
2021/09/29 07:16:32;;;;;;;14.23;8.18;;;;;;;19.33;49.40;100576.34;4365529;32;33886;-86
2021/09/29 07:19:03;;;;;;;15.43;8.23;;;;;;;19.38;49.39;100587.53;4351927;32;32388;-86
2021/09/29 07:21:32;;;;;;;13.68;7.82;;;;;;;19.39;49.32;100586.59;4351203;32;33022;-87
2021/09/29 07:23:59;;;;;;;16.85;8.52;;;;;;;19.35;49.63;100585.91;4363976;32;34635;-86
2021/09/29 07:26:27;;;;;;;13.77;7.55;;;;;;;19.13;50.21;100586.22;4352423;32;34239;-88
2021/09/29 07:28:55;;;;;;;11.98;7.72;;;;;;;19.13;50.32;100585.34;4352605;32;32440;-86
2021/09/29 07:31:22;;;;;;;12.37;7.10;;;;;;;18.97;51.30;100588.84;4351693;32;34209;-87
2021/09/29 07:33:52;;;;;;;13.52;8.27;;;;;;;18.91;51.64;100589.13;4365474;32;34140;-85
2021/09/29 07:36:21;;;;;;;14.13;8.18;;;;;;;19.06;51.17;100576.91;4366502;32;34820;-86
2021/09/29 07:38:50;;;;;;;15.55;7.40;;;;;;;19.28;50.74;100579.25;4366397;32;33769;-86
2021/09/29 07:41:17;;;;;;;13.38;7.75;;;;;;;19.54;49.93;100587.53;4353486;32;33858;-87
2021/09/29 07:43:46;;;;;;;14.15;9.07;;;;;;;19.38;50.32;100586.69;4365384;32;34683;-86
2021/09/29 07:46:14;;;;;;;15.63;8.40;;;;;;;19.39;50.77;100585.75;4352423;32;33808;-85
2021/09/29 07:48:43;;;;;;;15.30;7.32;;;;;;;19.47;50.66;100591.47;4353123;32;35809;-86
2021/09/29 07:51:13;;;;;;;17.87;7.68;;;;;;;19.62;50.24;100595.06;4364922;32;33425;-86
2021/09/29 07:53:41;;;;;;;18.45;9.02;;;;;;;19.49;50.04;100601.03;4351920;32;33446;-85
2021/09/29 07:56:09;;;;;;;18.05;8.45;;;;;;;19.83;49.22;100598.34;4376829;32;35280;-84
2021/09/29 07:58:38;;;;;;;17.55;8.60;;;;;;;19.71;49.82;100599.84;4357018;32;33821;-86
2021/09/29 08:01:06;;;;;;;17.42;11.15;;;;;;;19.72;50.49;100593.63;4355582;32;33976;-86
2021/09/29 08:03:35;;;;;;;60.45;46.08;;;;;;;19.87;50.33;100599.03;4352484;32;33399;-85
2021/09/29 08:06:04;;;;;;;14.02;9.25;;;;;;;20.07;49.44;100593.44;4352869;32;33915;-85
2021/09/29 08:08:31;;;;;;;18.48;10.32;;;;;;;19.85;49.61;100594.66;4350839;32;32999;-86
2021/09/29 08:11:01;;;;;;;37.53;31.73;;;;;;;20.09;49.10;100599.50;4350890;32;34487;-86
2021/09/29 08:13:29;;;;;;;11.55;8.18;;;;;;;20.26;48.51;100603.84;4364087;32;34150;-85
2021/09/29 08:15:59;;;;;;;13.82;8.43;;;;;;;19.95;49.35;100597.63;4364597;32;34745;-85
2021/09/29 08:18:27;;;;;;;13.40;7.78;;;;;;;19.89;49.59;100600.66;4350756;32;32701;-85
2021/09/29 08:20:57;;;;;;;13.18;7.70;;;;;;;20.06;49.39;100596.19;4353399;32;33142;-87
2021/09/29 08:23:30;;;;;;;15.07;8.10;;;;;;;20.42;48.39;100597.63;4352649;32;33253;-86
2021/09/29 08:29:15;;;;;;;16.30;9.43;;;;;;;20.21;49.02;100605.88;4369884;32;33877;-86
2021/09/29 08:34:36;;;;;;;14.10;9.10;;;;;;;20.00;50.05;100611.44;4365517;32;33358;-86
2021/09/29 08:37:20;;;;;;;16.35;8.82;;;;;;;19.81;50.52;100616.06;4351407;32;33931;-85
2021/09/29 08:56:10;;;;;;;15.88;8.95;;;;;;;20.39;49.90;100619.84;4352034;32;33274;-86
2021/09/29 09:18:29;;;;;;;;;;;;;;;20.76;49.86;100628.28;4363406;32;33219;-86
2021/09/29 09:21:05;;;;;;;14.25;9.43;;;;;;;20.67;50.29;100631.44;4351167;32;33196;-86
2021/09/29 09:23:43;;;;;;;14.57;10.70;;;;;;;20.63;50.39;100625.47;4364375;32;32784;-86
2021/09/29 09:26:18;;;;;;;17.98;10.20;;;;;;;20.81;50.37;100636.81;4343632;32;33422;-87
2021/09/29 09:28:55;;;;;;;17.73;11.20;;;;;;;20.42;51.48;100632.03;4353201;32;34149;-86
2021/09/29 09:31:25;;;;;;;18.33;10.38;;;;;;;20.58;51.29;100632.00;4354332;32;34663;-89
2021/09/29 09:33:55;;;;;;;20.52;11.05;;;;;;;20.73;50.94;100628.47;4353095;32;33297;-86
2021/09/29 09:36:36;;;;;;;17.92;11.00;;;;;;;20.60;51.05;100636.25;4342864;32;33157;-88
2021/09/29 09:39:18;;;;;;;22.77;11.82;;;;;;;20.45;51.73;100640.66;4355322;32;33763;-86
2021/09/29 09:41:53;;;;;;;19.45;12.20;;;;;;;20.62;51.45;100639.69;4351026;32;33112;-87
2021/09/29 09:44:26;;;;;;;20.17;12.23;;;;;;;20.59;51.71;100639.84;4365163;32;33599;-86
2021/09/29 09:47:05;;;;;;;24.73;12.20;;;;;;;20.46;52.09;100645.03;4352533;32;34066;-87
2021/09/29 09:49:56;;;;;;;20.40;12.27;;;;;;;20.41;52.45;100641.78;4351359;32;33726;-85
2021/09/29 09:52:29;;;;;;;18.12;12.10;;;;;;;20.19;53.26;100642.16;4364801;32;33979;-86
2021/09/29 09:55:03;;;;;;;21.70;12.48;;;;;;;20.33;53.28;100636.09;4363022;32;33054;-87
2021/09/29 09:57:34;;;;;;;18.92;11.85;;;;;;;20.51;53.21;100644.72;4376047;32;35334;-86
2021/09/29 10:00:18;;;;;;;21.15;12.85;;;;;;;20.31;53.83;100633.50;4362610;32;33772;-85
2021/09/29 10:02:48;;;;;;;21.60;12.88;;;;;;;20.30;54.28;100629.19;4349307;32;33053;-87
2021/09/29 10:05:19;;;;;;;26.25;13.30;;;;;;;20.38;53.94;100634.00;4350089;32;33689;-85
2021/09/29 10:07:49;;;;;;;24.10;13.15;;;;;;;20.59;53.07;100629.25;4349221;32;33655;-87
2021/09/29 10:27:19;;;;;;;22.45;13.38;;;;;;;20.71;53.80;100640.09;4362531;32;33048;-87
2021/09/29 10:30:08;;;;;;;20.35;12.23;;;;;;;20.46;54.26;100641.50;4367655;32;33334;-88
2021/09/29 10:32:44;;;;;;;31.95;12.93;;;;;;;20.33;54.76;100636.94;4337989;32;34138;-86
2021/09/29 10:44:19;;;;;;;23.40;12.13;;;;;;;20.83;53.30;100642.03;4361755;32;33490;-85
2021/09/29 10:46:39;;;;;;;19.87;12.13;;;;;;;20.77;53.25;100655.66;4346807;32;33528;-85
2021/09/29 10:49:15;;;;;;;23.87;13.55;;;;;;;20.56;54.20;100655.91;4363645;32;33795;-85
2021/09/29 11:28:27;;;;;;;25.05;13.23;;;;;;;20.78;56.34;100621.13;4356050;32;33281;-85
2021/09/29 11:31:01;;;;;;;28.50;14.68;;;;;;;20.83;55.98;100624.34;4353338;32;33492;-85
2021/09/29 11:33:45;;;;;;;26.85;14.87;;;;;;;20.93;55.80;100624.63;4328730;32;32365;-86
2021/09/29 11:37:16;;;;;;;22.73;14.45;;;;;;;20.69;56.72;100619.03;4340929;32;32959;-86
2021/09/29 12:10:10;;;;;;;27.15;16.75;;;;;;;20.98;56.66;100614.62;4363070;32;33735;-86
2021/09/29 12:12:48;;;;;;;25.37;15.02;;;;;;;21.01;56.57;100609.13;4351399;32;34038;-86
2021/09/29 12:15:17;;;;;;;24.80;14.87;;;;;;;21.06;56.41;100621.22;4363299;32;33312;-87
2021/09/29 12:17:50;;;;;;;28.30;14.38;;;;;;;20.90;56.85;100611.59;4364077;32;33884;-87
2021/09/29 12:20:21;;;;;;;24.20;14.07;;;;;;;21.05;56.53;100619.53;4349706;32;33857;-86
2021/09/29 12:22:51;;;;;;;;;;;;;;;21.02;56.56;100613.50;4364278;32;34090;-87
2021/09/29 12:25:38;;;;;;;21.85;13.18;;;;;;;21.09;56.56;100607.81;4362905;32;34170;-85
2021/09/29 12:36:35;;;;;;;32.92;16.58;;;;;;;21.25;56.39;100607.72;4359654;32;32899;-88
2021/09/29 12:39:17;;;;;;;23.62;15.05;;;;;;;21.46;55.87;100609.03;4357920;32;32564;-86
2021/09/29 12:41:49;;;;;;;;;;;;;;;21.26;56.45;100609.41;4351103;32;33201;-86
2021/09/29 12:44:18;;;;;;;25.02;14.18;;;;;;;21.47;55.71;100604.56;4350782;32;34944;-86
2021/09/29 12:47:10;;;;;;;27.60;14.13;;;;;;;21.39;55.95;100607.69;4367068;32;34317;-87
2021/09/29 12:49:39;;;;;;;24.15;14.75;;;;;;;21.46;55.90;100608.16;4351808;32;32878;-86
2021/09/29 12:52:13;;;;;;;22.75;14.70;;;;;;;21.61;55.52;100607.22;4363679;32;33600;-87
2021/09/29 12:54:48;;;;;;;23.92;14.65;;;;;;;21.58;55.60;100602.13;4351846;32;33434;-86
2021/09/29 12:57:17;;;;;;;24.80;14.25;;;;;;;21.52;55.81;100602.47;4352072;32;32782;-86
2021/09/29 12:59:44;;;;;;;21.73;15.05;;;;;;;21.16;56.77;100609.97;4363363;32;33134;-86
2021/09/29 13:02:12;;;;;;;24.52;15.18;;;;;;;21.48;55.93;100603.63;4351004;32;34329;-87
2021/09/29 13:04:41;;;;;;;29.10;14.27;;;;;;;21.58;55.77;100604.78;4351031;32;33023;-86
2021/09/29 13:07:09;;;;;;;25.15;14.73;;;;;;;21.67;55.62;100608.62;4350819;32;34438;-87
2021/09/29 13:09:36;;;;;;;24.60;15.95;;;;;;;21.70;55.44;100603.16;4351876;32;32702;-87
2021/09/29 13:12:05;;;;;;;30.60;16.85;;;;;;;21.51;56.03;100606.94;4353261;32;33205;-87
2021/09/29 13:14:34;;;;;;;26.20;16.45;;;;;;;21.54;56.04;100599.75;4363705;32;35030;-88
2021/09/29 13:17:03;;;;;;;24.55;16.00;;;;;;;21.59;55.89;100603.84;4363126;32;32957;-87
2021/09/29 13:19:37;;;;;;;28.85;15.65;;;;;;;21.60;56.01;100605.53;4350638;32;33465;-88
2021/09/29 13:22:14;;;;;;;25.80;14.48;;;;;;;21.79;55.49;100599.03;4352556;32;34643;-88
2021/09/29 13:35:13;;;;;;;31.17;17.62;;;;;;;21.89;54.94;100600.16;4349361;32;32974;-87
2021/09/29 13:38:30;;;;;;;28.48;16.92;;;;;;;21.70;55.89;100595.19;4340433;32;33766;-85
2021/09/29 13:40:58;;;;;;;26.45;15.52;;;;;;;21.81;55.54;100597.16;4341102;32;32999;-86
2021/09/29 13:43:26;;;;;;;26.75;16.70;;;;;;;21.85;55.55;100594.19;4363522;32;34199;-85
2021/09/29 13:45:53;;;;;;;32.22;17.50;;;;;;;21.72;56.02;100597.75;4349998;32;33807;-87
2021/09/29 13:48:22;;;;;;;28.75;16.60;;;;;;;21.58;56.43;100596.84;4365116;32;33354;-85
2021/09/29 13:50:50;;;;;;;32.22;18.25;;;;;;;21.66;56.25;100599.00;4364514;32;32821;-86
2021/09/29 13:53:17;;;;;;;30.88;17.30;;;;;;;21.50;56.83;100594.62;4364708;32;34033;-86
2021/09/29 13:55:48;;;;;;;28.23;18.35;;;;;;;21.50;56.78;100597.28;4364550;32;33495;-86
2021/09/29 14:14:21;;;;;;;35.30;19.08;;;;;;;21.45;57.12;100606.47;4363791;32;33342;-85
2021/09/29 14:30:50;;;;;;;29.05;17.20;;;;;;;21.44;57.35;100595.00;4361209;32;34303;-86
2021/09/29 14:33:23;;;;;;;32.60;16.98;;;;;;;21.60;56.96;100594.91;4349157;32;32359;-86
2021/09/29 14:35:52;;;;;;;31.60;16.65;;;;;;;21.36;57.68;100592.00;4361873;32;33826;-86
2021/09/29 14:38:20;;;;;;;26.95;16.08;;;;;;;21.36;57.67;100586.69;4349127;32;34251;-85